Terminal Aerodrome Forecast
Issued by NWS

Home | Current Version | Previous Version | Graphics & Text | Print | Product List | Glossary On
Versions: 1 2 3 4 5 6 7 8 9 10 11 12 13 14 15 16 17 18 19 20 21 22 23 24 25 26
000
FTUS43 KLOT 010858 AAA
TAFGYY
TAF AMD
KGYY 010858Z 0109/0206 07009KT 6SM BR VCSH SCT008 OVC015
     FM011000 03007KT 6SM BR OVC012
      TEMPO 0111/0114 4SM -RA OVC006
     FM011500 04010KT 5SM -SHRA BR OVC010
     FM011700 03008KT 6SM -SHRA BR SCT012 OVC020
     FM012300 02007KT P6SM BKN030 BKN060
     FM020200 VRB04KT P6SM SCT030 BKN050=

USA.gov is the U.S. government's official web portal to all federal, state and local government web resources and services.